Addison, VT

4:21 AM EDT on May 30, 2015 (GMT -0400)
Windy Valley Farm | | Change Station
CLOSE
Current Station
Personal Weather Station
Location: Waltham, VT
Elevation: 195 ft
Nearby Weather Stations

Elev 195 ft 44.15 °N, 73.25 °W | Updated 2 seconds ago

Mostly Cloudy
Mostly Cloudy
70.5 °F
Feels Like 71 °F
N
14.8
Wind Variable Wind from SSW
Gusts 23.0 mph

Today
High -- | Low -- °F
--% Chance of Precip.
Yesterday
High -- | Low -- °F
Precip. -- in
5:14 AM 8:27 PM
Waxing Gibbous, 89% visible
Pressure 30.11 in
Visibility 10.0 miles
Clouds Scattered Clouds 5000 ft
Mostly Cloudy 12000 ft
Heat Index 71 °F
Dew Point 64 °F
Humidity 81%
Rainfall 0.00 in
Snow Depth Not available.
UV 0 out of 12
Pollen 9.80 out of 12
Air Quality Not available.
Flu Activity Sporadic
METAR K6B0 300815Z AUTO 17005KT 10SM SCT050 BKN120 21/14 A3011 RMK AO2 T02070137

More Conditions Fewer Conditions

Pressure 30.11 in
Visibility 10.0 miles
Clouds Scattered Clouds 5000 ft
Mostly Cloudy 12000 ft
Heat Index 71 °F
Dew Point 64 °F
Humidity 81%
Rainfall 0.00 in
Snow Depth Not available.
UV 0 out of 12
Pollen 9.80 out of 12
Air Quality Not available.
Flu Activity Sporadic
METAR K6B0 300815Z AUTO 17005KT 10SM SCT050 BKN120 21/14 A3011 RMK AO2 T02070137

More Conditions Fewer Conditions

10-Day Weather Forecast

Almanac

Astronomy

May. 30, 2015 Rise Set
Actual Time
Civil Twilight
Nautical Twilight
Astronomical Twilight
Moon
Length of Visible Light
Length of Day
Tomorrow will be .
, % of the Moon is Illuminated

Today's Extremes

State Highs State Lows

Community

WunderPhotos

Upload Photos

1,825,472 photos uploaded!

WunderBlogs® & News

Nearby

Air Quality

  Air Quality AQ Index Pollutant
Not available.

Snow Depth

Station Depth Elevation

Earthquake Activity

City Distance Mag. Time & Date
Minimum magnitude displayed is 2.5.

Coastal Water Temperatures

Place Temperature

Stations

Nearby Weather Stations

Station Location Temp. Windchill Dew Point Humidity Wind Precip. Elev Updated Type